Main page
METAR-TAF:

METAR-TAF

Airports :

Oran Tafraoui Airport

Tafraoui, Algeria

latitude: 35-32-33N, longitude: 000-31-56W, elevation: 112 m

Current weather observation

The report was made 42 minutes ago, at 19:00 UTC
Wind 4 kt from the East/Southeast
Temperature 7°C
Humidity 93%
Pressure 1025 hPa
Visibility: 8000 m
Scattered clouds at a height of 2600 ft

METAR: DAOL 211900Z 11004KT 8000 SCT026 07/06 Q1025

Time: 20:42 (19:42 UTC)


TAF: missing

Weather observations and forecasts of more than 4000 airports (METAR and TAF reports).

The available stations are represented by yellow and red dots on the map.

Hover mouse over dot to see the name of the station.

Then click to see weather observations and forecasts.

To change the map : click on the green buttons with a black cross to zoom in, on the green button with a dash to zoom out, or on the green arrows for adjacent maps.


METAR-TAF: